Wetterstation Rottenburg Seebronn / 442m msl / http://mut-lambrecht.de
LETZTE AKTUALISIERUNG UM: 18:00 DATUM: Juli 26 2021, time of next update: 18:05
Aktuelles Wettermostly cloudy - heavy rain with thunder, snow pellets; Cumulonimbus clouds observed Aktuelle Temperatur 19.9°C (67.8°F) (Hitze-Index 19.9°C ), Apparent temp 20.7°C
Höchsttemperatur (seit Mitternacht)24.4°C um: 12:52 Tiefsttemperatur (seit Mitternacht)15.0°C um: 06:32
Windgeschwindigkeit (10 Minuten )5.2 kmh (2.8 kts) Windrichtung (Dir) (10 Minuten )NW (320°)
Windchill Temperatur 19.9°C Windspitzen (letzte Std)19.2 kmh (10.4 kts) um: 17:10
Windspitzen (seit Mitternacht)34.2 kmh (18.5 kts) um: 16:34 Höchstes Windmittel / Minute (seit Mitternacht)15.5 kmh (8.4 kts) um: 16:40
Regenmenge (letzte Std)0.7 mm Regenmenge (seit Mitternacht)0.7 mm (0.03 in.) at 17:58
Regenmenge diesen Monat 59.1 mm (2.33 in.) Regenmenge seit Jahresbeginn 915.7 mm (36.05 in.)
Höchste Regenmenge pro Minute (letzte Std)0.0 mm/min Höchste Regenmenge pro Stunde (letzte 6 Std)0.0 mm/stunde
Regenmenge Gestern 7.7 mm Taupunkt 15.5°C (Wet Bulb :17.3°C )
Luftfeuchtigkeit 76 %, Humidex 24.2°C Aktueller Luftdruck (auf Meereshöhe bezogen)1015.3 hPa
Luftdrucktendenz -0.7 hPa (letzte Std) Trend (letzte 1 Std)gleichbleibend
Luftdrucktendenz (letzte 12 Std)+2.2 hPa Luftdrucktendenz (letzte 6 Std)+0.4 hPa



Weather report/warning/Metars

Stuttgart-Echterdingen, Germany (EDDS) 48-41N 009-13E 391M
Jul 26, 2021 - 10:50 AM EDT / 2021.07.26 1450 UTC
Wind: from the W (280 degrees) at 33 MPH (29 KT) gusting to 47 MPH (41 KT) (direction variable):0
Visibility: less than 1 mile:0
Sky conditions: mostly cloudy
Weather: heavy rain with thunder, snow pellets; Cumulonimbus clouds observed
Temperature: 62 F (17 C)
Dew Point: 57 F (14 C)
Relative Humidity: 82%
Pressure (altimeter): 29.97 in. Hg (1015 hPa)
ob: EDDS 261450Z 28029G41KT 250V310 0800 R25/1300VP2000D +TSRAGS SCT015 BKN025CB 17/14 Q1015 BECMG NSW
cycle: 15
Karlsruhe, Baden Wurttemberg, Germany (EDSB) 48-46-43N 008-04-47E
Jul 26, 2021 - 10:50 AM EDT / 2021.07.26 1450 UTC
Wind: from the W (280 degrees) at 3 MPH (3 KT) (direction variable):0
Visibility: greater than 7 mile(s):0
Sky conditions: mostly clear
Temperature: 78 F (26 C)
Dew Point: 60 F (16 C)
Relative Humidity: 54%
Pressure (altimeter): 29.88 in. Hg (1012 hPa)
ob: EDSB 261450Z 28003KT 230V340 9999 FEW042 26/16 Q1012
cycle: 15
Lahr, CAN-AFB, Germany (EDTL) 48-22-09N 007-49-40E
Jul 26, 2021 - 10:50 AM EDT / 2021.07.26 1450 UTC
Wind: from the ESE (120 degrees) at 5 MPH (4 KT) (direction variable):0
Visibility: greater than 7 mile(s):0
Temperature: 77 F (25 C)
Dew Point: 64 F (18 C)
Relative Humidity: 65%
Pressure (altimeter): 29.88 in. Hg (1012 hPa)
ob: EDTL 261450Z 12004KT 060V170 CAVOK 25/18 Q1012
cycle: 15
Laupheim, Germany (ETHL) 48-13N 009-55E 550M
Jul 26, 2021 - 10:20 AM EDT / 2021.07.26 1420 UTC
Wind: from the N (350 degrees) at 2 MPH (2 KT):0
Visibility: greater than 7 mile(s):0
Sky conditions: partly cloudy
Weather: thunder in the vicinity; showers in the vicinity; Cumulonimbus clouds observed
Temperature: 75 F (24 C)
Dew Point: 55 F (13 C)
Relative Humidity: 50%
Pressure (altimeter): 29.91 in. Hg (1013 hPa)
ob: ETHL 261420Z 35002KT 9999 VCTS VCSH SCT040 FEW045CB SCT220 24/13 Q1013 BLU+
cycle: 14


Klicken Sie hier, um zu den Durchschnitts-, Extrem-, Monats- oder Tageswerten zu gelangen


Die Wetterdaten werden alle 5 Minuten aktualisiert.
Die 3 stündige Echtzeitgrafik wird jede Minute aktualisiert.
Bei der 3 stündige Echtzeitgrafik sind derzeit die Skalenfarben von Winddurchschnitt u. Windböen vertauscht. (Softwarebug)

Drücken Sie gegebenenfalls auf "Aktualisieren" in Ihrem Browser, um die aktuellsten Daten zu erhalten.